sensor_id;sensor_type;location;lat;lon;timestamp;temperature;humidity
23475;DHT22;11910;52.086;21.066;2022-12-07T00:21:01;3.70;99.90
23475;DHT22;11910;52.086;21.066;2022-12-07T00:40:49;3.90;99.90
23475;DHT22;11910;52.086;21.066;2022-12-07T00:43:49;3.90;99.90
23475;DHT22;11910;52.086;21.066;2022-12-07T00:46:55;3.90;99.90
23475;DHT22;11910;52.086;21.066;2022-12-07T01:06:55;4.00;99.90
23475;DHT22;11910;52.086;21.066;2022-12-07T01:09:21;4.00;99.90
23475;DHT22;11910;52.086;21.066;2022-12-07T01:11:47;4.00;99.90
23475;DHT22;11910;52.086;21.066;2022-12-07T01:14:12;4.10;99.90
23475;DHT22;11910;52.086;21.066;2022-12-07T01:16:38;4.10;99.90
23475;DHT22;11910;52.086;21.066;2022-12-07T01:19:04;4.10;99.90
23475;DHT22;11910;52.086;21.066;2022-12-07T01:21:39;4.10;99.90
23475;DHT22;11910;52.086;21.066;2022-12-07T01:24:10;4.10;99.90
23475;DHT22;11910;52.086;21.066;2022-12-07T01:26:36;4.20;99.90
23475;DHT22;11910;52.086;21.066;2022-12-07T01:29:02;4.10;99.90
23475;DHT22;11910;52.086;21.066;2022-12-07T01:31:31;4.10;99.90
23475;DHT22;11910;52.086;21.066;2022-12-07T01:33:58;4.10;99.90
23475;DHT22;11910;52.086;21.066;2022-12-07T01:36:33;4.10;99.90
23475;DHT22;11910;52.086;21.066;2022-12-07T01:39:09;4.10;99.90
23475;DHT22;11910;52.086;21.066;2022-12-07T01:41:38;4.10;99.90
23475;DHT22;11910;52.086;21.066;2022-12-07T01:44:18;4.20;99.90
23475;DHT22;11910;52.086;21.066;2022-12-07T01:46:58;4.20;99.90
23475;DHT22;11910;52.086;21.066;2022-12-07T01:49:34;4.20;99.90
23475;DHT22;11910;52.086;21.066;2022-12-07T01:52:26;4.20;99.90
23475;DHT22;11910;52.086;21.066;2022-12-07T01:54:56;4.20;99.90
23475;DHT22;11910;52.086;21.066;2022-12-07T01:57:23;4.20;99.90
23475;DHT22;11910;52.086;21.066;2022-12-07T01:59:50;4.20;99.90
23475;DHT22;11910;52.086;21.066;2022-12-07T02:02:27;4.20;99.90
23475;DHT22;11910;52.086;21.066;2022-12-07T02:05:05;4.10;99.90
23475;DHT22;11910;52.086;21.066;2022-12-07T02:07:34;4.10;99.90
23475;DHT22;11910;52.086;21.066;2022-12-07T02:10:16;4.10;99.90
23475;DHT22;11910;52.086;21.066;2022-12-07T02:12:47;4.10;99.90
23475;DHT22;11910;52.086;21.066;2022-12-07T02:15:14;4.10;99.90
23475;DHT22;11910;52.086;21.066;2022-12-07T02:32:22;4.10;99.90
23475;DHT22;11910;52.086;21.066;2022-12-07T02:34:52;4.10;99.90
23475;DHT22;11910;52.086;21.066;2022-12-07T02:40:18;4.00;99.90
23475;DHT22;11910;52.086;21.066;2022-12-07T02:42:51;4.00;99.90
23475;DHT22;11910;52.086;21.066;2022-12-07T02:45:21;4.00;99.90
23475;DHT22;11910;52.086;21.066;2022-12-07T02:47:51;4.00;99.90
23475;DHT22;11910;52.086;21.066;2022-12-07T02:50:21;4.00;99.90
23475;DHT22;11910;52.086;21.066;2022-12-07T02:52:47;4.00;99.90
23475;DHT22;11910;52.086;21.066;2022-12-07T02:55:15;3.90;99.90
23475;DHT22;11910;52.086;21.066;2022-12-07T03:00:20;3.90;99.90
23475;DHT22;11910;52.086;21.066;2022-12-07T03:03:09;3.80;99.90
23475;DHT22;11910;52.086;21.066;2022-12-07T03:05:52;3.80;99.90
23475;DHT22;11910;52.086;21.066;2022-12-07T03:08:44;3.70;99.90
23475;DHT22;11910;52.086;21.066;2022-12-07T03:11:17;3.80;99.90
23475;DHT22;11910;52.086;21.066;2022-12-07T03:14:02;3.80;99.90
23475;DHT22;11910;52.086;21.066;2022-12-07T03:16:37;3.70;99.90
23475;DHT22;11910;52.086;21.066;2022-12-07T03:19:10;3.80;99.90
23475;DHT22;11910;52.086;21.066;2022-12-07T03:21:40;3.80;99.90
23475;DHT22;11910;52.086;21.066;2022-12-07T03:24:19;3.70;99.90
23475;DHT22;11910;52.086;21.066;2022-12-07T03:26:49;3.70;99.90
23475;DHT22;11910;52.086;21.066;2022-12-07T03:29:28;3.70;99.90
23475;DHT22;11910;52.086;21.066;2022-12-07T03:32:08;3.70;99.90
23475;DHT22;11910;52.086;21.066;2022-12-07T03:34:56;3.60;99.90
23475;DHT22;11910;52.086;21.066;2022-12-07T03:37:45;3.60;99.90
23475;DHT22;11910;52.086;21.066;2022-12-07T03:40:24;3.60;99.90
23475;DHT22;11910;52.086;21.066;2022-12-07T03:42:52;3.60;99.90
23475;DHT22;11910;52.086;21.066;2022-12-07T03:45:21;3.60;99.90
23475;DHT22;11910;52.086;21.066;2022-12-07T03:48:37;3.50;99.90
23475;DHT22;11910;52.086;21.066;2022-12-07T03:51:15;3.50;99.90
23475;DHT22;11910;52.086;21.066;2022-12-07T03:56:38;3.50;99.90
23475;DHT22;11910;52.086;21.066;2022-12-07T03:59:04;3.40;99.90
23475;DHT22;11910;52.086;21.066;2022-12-07T04:01:31;3.40;99.90
23475;DHT22;11910;52.086;21.066;2022-12-07T04:03:57;3.50;99.90
23475;DHT22;11910;52.086;21.066;2022-12-07T04:06:23;3.40;99.90
23475;DHT22;11910;52.086;21.066;2022-12-07T04:08:48;3.40;99.90
23475;DHT22;11910;52.086;21.066;2022-12-07T04:11:14;3.40;99.90
23475;DHT22;11910;52.086;21.066;2022-12-07T04:13:39;3.40;99.90
23475;DHT22;11910;52.086;21.066;2022-12-07T04:16:23;3.40;99.90
23475;DHT22;11910;52.086;21.066;2022-12-07T04:18:49;3.40;99.90
23475;DHT22;11910;52.086;21.066;2022-12-07T04:21:15;3.40;99.90
23475;DHT22;11910;52.086;21.066;2022-12-07T04:23:40;3.40;99.90
23475;DHT22;11910;52.086;21.066;2022-12-07T04:26:06;3.40;99.90
23475;DHT22;11910;52.086;21.066;2022-12-07T04:28:32;3.40;99.90
23475;DHT22;11910;52.086;21.066;2022-12-07T04:30:58;3.40;99.90
23475;DHT22;11910;52.086;21.066;2022-12-07T04:33:29;3.40;99.90
23475;DHT22;11910;52.086;21.066;2022-12-07T04:35:55;3.40;99.90
23475;DHT22;11910;52.086;21.066;2022-12-07T04:38:21;3.40;99.90
23475;DHT22;11910;52.086;21.066;2022-12-07T04:40:46;3.30;99.90
23475;DHT22;11910;52.086;21.066;2022-12-07T04:43:12;3.30;99.90
23475;DHT22;11910;52.086;21.066;2022-12-07T04:45:37;3.30;99.90
23475;DHT22;11910;52.086;21.066;2022-12-07T04:48:03;3.30;99.90
23475;DHT22;11910;52.086;21.066;2022-12-07T04:50:29;3.40;99.90
23475;DHT22;11910;52.086;21.066;2022-12-07T04:52:54;3.40;99.90
23475;DHT22;11910;52.086;21.066;2022-12-07T04:55:23;3.30;99.90
23475;DHT22;11910;52.086;21.066;2022-12-07T04:57:48;3.30;99.90
23475;DHT22;11910;52.086;21.066;2022-12-07T05:00:14;3.30;99.90
23475;DHT22;11910;52.086;21.066;2022-12-07T05:02:40;3.30;99.90
23475;DHT22;11910;52.086;21.066;2022-12-07T05:05:06;3.30;99.90
23475;DHT22;11910;52.086;21.066;2022-12-07T05:07:31;3.30;99.90
23475;DHT22;11910;52.086;21.066;2022-12-07T05:09:57;3.30;99.90
23475;DHT22;11910;52.086;21.066;2022-12-07T05:12:23;3.30;99.90
23475;DHT22;11910;52.086;21.066;2022-12-07T05:14:48;3.30;99.90
23475;DHT22;11910;52.086;21.066;2022-12-07T05:17:14;3.20;99.90
23475;DHT22;11910;52.086;21.066;2022-12-07T05:19:39;3.20;99.90
23475;DHT22;11910;52.086;21.066;2022-12-07T05:22:05;3.20;99.90
23475;DHT22;11910;52.086;21.066;2022-12-07T05:24:31;3.20;99.90
23475;DHT22;11910;52.086;21.066;2022-12-07T05:26:56;3.20;99.90
23475;DHT22;11910;52.086;21.066;2022-12-07T05:29:22;3.20;99.90
23475;DHT22;11910;52.086;21.066;2022-12-07T05:31:48;3.20;99.90
23475;DHT22;11910;52.086;21.066;2022-12-07T05:34:13;3.20;99.90
23475;DHT22;11910;52.086;21.066;2022-12-07T05:36:39;3.20;99.90
23475;DHT22;11910;52.086;21.066;2022-12-07T05:39:05;3.20;99.90
23475;DHT22;11910;52.086;21.066;2022-12-07T05:41:31;3.20;99.90
23475;DHT22;11910;52.086;21.066;2022-12-07T05:44:15;3.20;99.90
23475;DHT22;11910;52.086;21.066;2022-12-07T05:46:40;3.20;99.90
23475;DHT22;11910;52.086;21.066;2022-12-07T05:49:06;3.20;99.90
23475;DHT22;11910;52.086;21.066;2022-12-07T05:51:32;3.20;99.90
23475;DHT22;11910;52.086;21.066;2022-12-07T05:53:57;3.20;99.90
23475;DHT22;11910;52.086;21.066;2022-12-07T05:56:23;3.20;99.90
23475;DHT22;11910;52.086;21.066;2022-12-07T05:58:49;3.20;99.90
23475;DHT22;11910;52.086;21.066;2022-12-07T06:01:33;3.10;99.90
23475;DHT22;11910;52.086;21.066;2022-12-07T06:03:59;3.10;99.90
23475;DHT22;11910;52.086;21.066;2022-12-07T06:06:25;3.10;99.90
23475;DHT22;11910;52.086;21.066;2022-12-07T06:08:50;3.10;99.90
23475;DHT22;11910;52.086;21.066;2022-12-07T06:11:16;3.10;99.90
23475;DHT22;11910;52.086;21.066;2022-12-07T06:14:00;3.00;99.90
23475;DHT22;11910;52.086;21.066;2022-12-07T06:16:26;3.10;99.90
23475;DHT22;11910;52.086;21.066;2022-12-07T06:18:51;3.10;99.90
23475;DHT22;11910;52.086;21.066;2022-12-07T06:21:17;3.10;99.90
23475;DHT22;11910;52.086;21.066;2022-12-07T06:23:43;3.10;99.90
23475;DHT22;11910;52.086;21.066;2022-12-07T06:26:08;3.10;99.90
23475;DHT22;11910;52.086;21.066;2022-12-07T06:28:34;3.10;99.90
23475;DHT22;11910;52.086;21.066;2022-12-07T06:31:01;3.10;99.90
23475;DHT22;11910;52.086;21.066;2022-12-07T06:33:27;3.10;99.90
23475;DHT22;11910;52.086;21.066;2022-12-07T06:35:53;3.10;99.90
23475;DHT22;11910;52.086;21.066;2022-12-07T06:38:19;3.10;99.90
23475;DHT22;11910;52.086;21.066;2022-12-07T06:40:44;3.00;99.90
23475;DHT22;11910;52.086;21.066;2022-12-07T06:43:10;3.00;99.90
23475;DHT22;11910;52.086;21.066;2022-12-07T06:45:36;3.00;99.90
23475;DHT22;11910;52.086;21.066;2022-12-07T06:48:01;3.10;99.90
23475;DHT22;11910;52.086;21.066;2022-12-07T06:50:27;3.00;99.90
23475;DHT22;11910;52.086;21.066;2022-12-07T06:52:53;3.00;99.90
23475;DHT22;11910;52.086;21.066;2022-12-07T06:55:19;3.00;99.90
23475;DHT22;11910;52.086;21.066;2022-12-07T06:57:44;2.90;99.90
23475;DHT22;11910;52.086;21.066;2022-12-07T07:00:11;2.90;99.90
23475;DHT22;11910;52.086;21.066;2022-12-07T07:02:36;2.90;99.90
23475;DHT22;11910;52.086;21.066;2022-12-07T07:05:03;3.00;99.90
23475;DHT22;11910;52.086;21.066;2022-12-07T07:07:28;3.00;99.90
23475;DHT22;11910;52.086;21.066;2022-12-07T07:09:54;3.00;99.90
23475;DHT22;11910;52.086;21.066;2022-12-07T07:12:20;3.00;99.90
23475;DHT22;11910;52.086;21.066;2022-12-07T07:14:45;3.00;99.90
23475;DHT22;11910;52.086;21.066;2022-12-07T07:17:11;3.00;99.90
23475;DHT22;11910;52.086;21.066;2022-12-07T07:19:37;3.00;99.90
23475;DHT22;11910;52.086;21.066;2022-12-07T07:22:03;3.00;99.90
23475;DHT22;11910;52.086;21.066;2022-12-07T07:24:29;3.00;99.90
23475;DHT22;11910;52.086;21.066;2022-12-07T07:26:54;3.00;99.90
23475;DHT22;11910;52.086;21.066;2022-12-07T07:29:20;3.00;99.90
23475;DHT22;11910;52.086;21.066;2022-12-07T07:31:46;3.00;99.90
23475;DHT22;11910;52.086;21.066;2022-12-07T07:34:11;3.00;99.90
23475;DHT22;11910;52.086;21.066;2022-12-07T07:36:37;3.00;99.90
23475;DHT22;11910;52.086;21.066;2022-12-07T07:39:03;3.00;99.90
23475;DHT22;11910;52.086;21.066;2022-12-07T07:41:29;3.00;99.90
23475;DHT22;11910;52.086;21.066;2022-12-07T07:43:54;3.00;99.90
23475;DHT22;11910;52.086;21.066;2022-12-07T07:46:20;3.00;99.90
23475;DHT22;11910;52.086;21.066;2022-12-07T07:48:46;2.90;99.90
23475;DHT22;11910;52.086;21.066;2022-12-07T07:51:17;2.90;99.90
23475;DHT22;11910;52.086;21.066;2022-12-07T07:53:45;3.00;99.90
23475;DHT22;11910;52.086;21.066;2022-12-07T07:56:14;3.00;99.90
23475;DHT22;11910;52.086;21.066;2022-12-07T07:58:40;3.00;99.90
23475;DHT22;11910;52.086;21.066;2022-12-07T08:01:07;3.00;99.90
23475;DHT22;11910;52.086;21.066;2022-12-07T08:03:33;3.00;99.90
23475;DHT22;11910;52.086;21.066;2022-12-07T08:05:59;3.00;99.90
23475;DHT22;11910;52.086;21.066;2022-12-07T08:08:25;3.00;99.90
23475;DHT22;11910;52.086;21.066;2022-12-07T08:10:50;3.00;99.90
23475;DHT22;11910;52.086;21.066;2022-12-07T08:13:16;3.00;99.90
23475;DHT22;11910;52.086;21.066;2022-12-07T08:15:45;3.00;99.90
23475;DHT22;11910;52.086;21.066;2022-12-07T08:18:12;3.00;99.90
23475;DHT22;11910;52.086;21.066;2022-12-07T08:20:39;3.00;99.90
23475;DHT22;11910;52.086;21.066;2022-12-07T08:23:06;3.00;99.90
23475;DHT22;11910;52.086;21.066;2022-12-07T08:25:32;3.00;99.90
23475;DHT22;11910;52.086;21.066;2022-12-07T08:27:58;3.00;99.90
23475;DHT22;11910;52.086;21.066;2022-12-07T08:30:26;3.00;99.90
23475;DHT22;11910;52.086;21.066;2022-12-07T08:32:53;3.10;99.90
23475;DHT22;11910;52.086;21.066;2022-12-07T08:35:18;3.10;99.90
23475;DHT22;11910;52.086;21.066;2022-12-07T08:37:44;3.10;99.90
23475;DHT22;11910;52.086;21.066;2022-12-07T08:40:11;3.00;99.90
23475;DHT22;11910;52.086;21.066;2022-12-07T08:42:41;3.00;99.90
23475;DHT22;11910;52.086;21.066;2022-12-07T08:45:09;3.00;99.90
23475;DHT22;11910;52.086;21.066;2022-12-07T08:47:38;3.00;99.90
23475;DHT22;11910;52.086;21.066;2022-12-07T08:50:07;3.10;99.90
23475;DHT22;11910;52.086;21.066;2022-12-07T08:52:35;3.10;99.90
23475;DHT22;11910;52.086;21.066;2022-12-07T08:55:01;3.10;99.90
23475;DHT22;11910;52.086;21.066;2022-12-07T08:57:28;3.10;99.90
23475;DHT22;11910;52.086;21.066;2022-12-07T08:59:58;3.20;99.90
23475;DHT22;11910;52.086;21.066;2022-12-07T09:02:23;3.20;99.90
23475;DHT22;11910;52.086;21.066;2022-12-07T09:04:49;3.30;99.90
23475;DHT22;11910;52.086;21.066;2022-12-07T09:07:15;3.30;99.90
23475;DHT22;11910;52.086;21.066;2022-12-07T09:09:40;3.40;99.90
23475;DHT22;11910;52.086;21.066;2022-12-07T09:12:07;3.30;99.90
23475;DHT22;11910;52.086;21.066;2022-12-07T09:14:36;3.40;99.90
23475;DHT22;11910;52.086;21.066;2022-12-07T09:17:10;3.50;99.90
23475;DHT22;11910;52.086;21.066;2022-12-07T09:19:36;3.50;99.90
23475;DHT22;11910;52.086;21.066;2022-12-07T09:22:03;3.50;99.90
23475;DHT22;11910;52.086;21.066;2022-12-07T09:24:32;3.60;99.90
23475;DHT22;11910;52.086;21.066;2022-12-07T09:26:58;3.60;99.90
23475;DHT22;11910;52.086;21.066;2022-12-07T09:29:48;3.60;99.90
23475;DHT22;11910;52.086;21.066;2022-12-07T09:32:36;3.70;99.90
23475;DHT22;11910;52.086;21.066;2022-12-07T09:38:00;3.80;99.90
23475;DHT22;11910;52.086;21.066;2022-12-07T09:40:34;3.90;99.90
23475;DHT22;11910;52.086;21.066;2022-12-07T09:43:22;3.90;99.90
23475;DHT22;11910;52.086;21.066;2022-12-07T09:45:58;3.90;99.90
23475;DHT22;11910;52.086;21.066;2022-12-07T12:33:00;4.00;99.90
23475;DHT22;11910;52.086;21.066;2022-12-07T12:39:59;4.00;99.90
23475;DHT22;11910;52.086;21.066;2022-12-07T14:28:01;3.60;99.90
23475;DHT22;11910;52.086;21.066;2022-12-07T14:30:35;3.60;99.90
23475;DHT22;11910;52.086;21.066;2022-12-07T14:36:48;3.50;99.90
23475;DHT22;11910;52.086;21.066;2022-12-07T14:39:47;3.50;99.90
23475;DHT22;11910;52.086;21.066;2022-12-07T14:42:19;3.50;99.90
23475;DHT22;11910;52.086;21.066;2022-12-07T14:44:55;3.50;99.90
23475;DHT22;11910;52.086;21.066;2022-12-07T14:47:24;3.40;99.90
23475;DHT22;11910;52.086;21.066;2022-12-07T14:53:25;3.40;99.90
23475;DHT22;11910;52.086;21.066;2022-12-07T14:55:58;3.30;99.90
23475;DHT22;11910;52.086;21.066;2022-12-07T14:58:24;3.40;99.90
23475;DHT22;11910;52.086;21.066;2022-12-07T15:04:16;3.30;99.90
23475;DHT22;11910;52.086;21.066;2022-12-07T15:07:20;3.30;99.90
23475;DHT22;11910;52.086;21.066;2022-12-07T17:44:09;2.90;99.90
23475;DHT22;11910;52.086;21.066;2022-12-07T17:47:11;2.90;99.90
23475;DHT22;11910;52.086;21.066;2022-12-07T21:33:44;1.70;99.40
23475;DHT22;11910;52.086;21.066;2022-12-07T22:07:02;2.10;98.70
23475;DHT22;11910;52.086;21.066;2022-12-07T22:33:43;2.20;98.50
